sensor_id;sensor_type;location;lat;lon;timestamp;P1;durP1;ratioP1;P2;durP2;ratioP2
11283;SDS011;5698;47.332;11.180;2024-03-29T00:00:35;0.80;;;0.80;;
11283;SDS011;5698;47.332;11.180;2024-03-29T00:03:02;0.83;;;0.83;;
11283;SDS011;5698;47.332;11.180;2024-03-29T00:05:29;1.00;;;1.00;;
11283;SDS011;5698;47.332;11.180;2024-03-29T00:07:55;0.80;;;0.80;;
11283;SDS011;5698;47.332;11.180;2024-03-29T00:10:21;1.03;;;1.03;;
11283;SDS011;5698;47.332;11.180;2024-03-29T00:12:47;0.90;;;0.90;;
11283;SDS011;5698;47.332;11.180;2024-03-29T00:15:13;1.00;;;1.00;;
11283;SDS011;5698;47.332;11.180;2024-03-29T00:17:39;1.20;;;1.10;;
11283;SDS011;5698;47.332;11.180;2024-03-29T00:20:07;1.20;;;1.10;;
11283;SDS011;5698;47.332;11.180;2024-03-29T00:22:33;0.83;;;0.83;;
11283;SDS011;5698;47.332;11.180;2024-03-29T00:24:59;0.70;;;0.70;;
11283;SDS011;5698;47.332;11.180;2024-03-29T00:27:26;0.70;;;0.70;;
11283;SDS011;5698;47.332;11.180;2024-03-29T00:29:52;0.80;;;0.80;;
11283;SDS011;5698;47.332;11.180;2024-03-29T00:32:18;1.00;;;1.00;;
11283;SDS011;5698;47.332;11.180;2024-03-29T00:34:44;1.00;;;0.90;;
11283;SDS011;5698;47.332;11.180;2024-03-29T00:37:11;0.80;;;0.80;;
11283;SDS011;5698;47.332;11.180;2024-03-29T00:39:37;0.90;;;0.90;;
11283;SDS011;5698;47.332;11.180;2024-03-29T00:42:04;1.40;;;1.00;;
11283;SDS011;5698;47.332;11.180;2024-03-29T00:44:30;1.30;;;1.20;;
11283;SDS011;5698;47.332;11.180;2024-03-29T00:46:56;0.80;;;0.80;;
11283;SDS011;5698;47.332;11.180;2024-03-29T00:49:22;0.70;;;0.70;;
11283;SDS011;5698;47.332;11.180;2024-03-29T00:51:48;0.90;;;0.90;;
11283;SDS011;5698;47.332;11.180;2024-03-29T00:54:15;1.00;;;1.00;;
11283;SDS011;5698;47.332;11.180;2024-03-29T00:56:41;1.17;;;1.07;;
11283;SDS011;5698;47.332;11.180;2024-03-29T00:59:07;0.77;;;0.77;;
11283;SDS011;5698;47.332;11.180;2024-03-29T01:01:33;0.90;;;0.90;;
11283;SDS011;5698;47.332;11.180;2024-03-29T01:03:59;1.00;;;1.00;;
11283;SDS011;5698;47.332;11.180;2024-03-29T01:06:25;0.90;;;0.90;;
11283;SDS011;5698;47.332;11.180;2024-03-29T01:08:51;1.20;;;1.10;;
11283;SDS011;5698;47.332;11.180;2024-03-29T01:11:18;1.10;;;1.00;;
11283;SDS011;5698;47.332;11.180;2024-03-29T01:13:44;1.63;;;1.53;;
11283;SDS011;5698;47.332;11.180;2024-03-29T01:16:10;1.50;;;1.40;;
11283;SDS011;5698;47.332;11.180;2024-03-29T01:18:36;1.40;;;1.30;;
11283;SDS011;5698;47.332;11.180;2024-03-29T01:21:02;1.20;;;1.10;;
11283;SDS011;5698;47.332;11.180;2024-03-29T01:23:28;1.20;;;1.10;;
11283;SDS011;5698;47.332;11.180;2024-03-29T01:25:54;1.20;;;1.10;;
11283;SDS011;5698;47.332;11.180;2024-03-29T01:28:22;1.10;;;1.00;;
11283;SDS011;5698;47.332;11.180;2024-03-29T01:30:51;1.07;;;1.00;;
11283;SDS011;5698;47.332;11.180;2024-03-29T01:33:18;1.30;;;1.20;;
11283;SDS011;5698;47.332;11.180;2024-03-29T01:35:44;1.23;;;1.13;;
11283;SDS011;5698;47.332;11.180;2024-03-29T01:38:10;0.90;;;0.90;;
11283;SDS011;5698;47.332;11.180;2024-03-29T01:40:36;0.80;;;0.80;;
11283;SDS011;5698;47.332;11.180;2024-03-29T01:43:02;0.77;;;0.77;;
11283;SDS011;5698;47.332;11.180;2024-03-29T01:45:30;0.80;;;0.80;;
11283;SDS011;5698;47.332;11.180;2024-03-29T01:47:57;0.83;;;0.83;;
11283;SDS011;5698;47.332;11.180;2024-03-29T01:50:25;1.13;;;0.80;;
11283;SDS011;5698;47.332;11.180;2024-03-29T01:52:52;0.77;;;0.77;;
11283;SDS011;5698;47.332;11.180;2024-03-29T01:55:19;0.70;;;0.70;;
11283;SDS011;5698;47.332;11.180;2024-03-29T01:57:46;0.70;;;0.70;;
11283;SDS011;5698;47.332;11.180;2024-03-29T02:00:13;0.57;;;0.57;;
11283;SDS011;5698;47.332;11.180;2024-03-29T02:02:42;0.67;;;0.67;;
11283;SDS011;5698;47.332;11.180;2024-03-29T02:05:08;0.47;;;0.47;;
11283;SDS011;5698;47.332;11.180;2024-03-29T02:07:35;0.50;;;0.50;;
11283;SDS011;5698;47.332;11.180;2024-03-29T02:10:04;0.40;;;0.40;;
11283;SDS011;5698;47.332;11.180;2024-03-29T02:12:33;0.57;;;0.57;;
11283;SDS011;5698;47.332;11.180;2024-03-29T02:15:00;0.40;;;0.40;;
11283;SDS011;5698;47.332;11.180;2024-03-29T02:17:27;0.50;;;0.50;;
11283;SDS011;5698;47.332;11.180;2024-03-29T02:19:56;0.57;;;0.57;;
11283;SDS011;5698;47.332;11.180;2024-03-29T02:22:23;0.40;;;0.40;;
11283;SDS011;5698;47.332;11.180;2024-03-29T02:24:52;0.50;;;0.50;;
11283;SDS011;5698;47.332;11.180;2024-03-29T02:27:21;0.60;;;0.60;;
11283;SDS011;5698;47.332;11.180;2024-03-29T02:29:48;0.50;;;0.50;;
11283;SDS011;5698;47.332;11.180;2024-03-29T02:32:15;0.50;;;0.50;;
11283;SDS011;5698;47.332;11.180;2024-03-29T02:34:43;0.50;;;0.50;;
11283;SDS011;5698;47.332;11.180;2024-03-29T02:37:10;0.63;;;0.60;;
11283;SDS011;5698;47.332;11.180;2024-03-29T02:39:37;0.80;;;0.80;;
11283;SDS011;5698;47.332;11.180;2024-03-29T02:42:05;0.60;;;0.60;;
11283;SDS011;5698;47.332;11.180;2024-03-29T02:44:32;0.70;;;0.70;;
11283;SDS011;5698;47.332;11.180;2024-03-29T02:46:59;0.80;;;0.70;;
11283;SDS011;5698;47.332;11.180;2024-03-29T02:49:26;0.60;;;0.60;;
11283;SDS011;5698;47.332;11.180;2024-03-29T02:51:52;0.60;;;0.60;;
11283;SDS011;5698;47.332;11.180;2024-03-29T02:54:20;0.50;;;0.50;;
11283;SDS011;5698;47.332;11.180;2024-03-29T02:56:45;0.67;;;0.67;;
11283;SDS011;5698;47.332;11.180;2024-03-29T02:59:14;1.03;;;0.60;;
11283;SDS011;5698;47.332;11.180;2024-03-29T03:01:40;0.60;;;0.60;;
11283;SDS011;5698;47.332;11.180;2024-03-29T03:04:07;0.70;;;0.70;;
11283;SDS011;5698;47.332;11.180;2024-03-29T03:06:33;0.80;;;0.80;;
11283;SDS011;5698;47.332;11.180;2024-03-29T03:09:00;0.50;;;0.50;;
11283;SDS011;5698;47.332;11.180;2024-03-29T03:11:44;0.60;;;0.60;;
11283;SDS011;5698;47.332;11.180;2024-03-29T03:14:11;0.50;;;0.50;;
11283;SDS011;5698;47.332;11.180;2024-03-29T03:16:39;1.53;;;0.63;;
11283;SDS011;5698;47.332;11.180;2024-03-29T03:19:06;0.70;;;0.70;;
11283;SDS011;5698;47.332;11.180;2024-03-29T03:21:32;0.53;;;0.53;;
11283;SDS011;5698;47.332;11.180;2024-03-29T03:24:00;0.60;;;0.60;;
11283;SDS011;5698;47.332;11.180;2024-03-29T03:26:26;0.50;;;0.50;;
11283;SDS011;5698;47.332;11.180;2024-03-29T03:28:53;0.50;;;0.50;;
11283;SDS011;5698;47.332;11.180;2024-03-29T03:31:19;0.50;;;0.50;;
11283;SDS011;5698;47.332;11.180;2024-03-29T03:33:47;0.50;;;0.50;;
11283;SDS011;5698;47.332;11.180;2024-03-29T03:36:13;0.70;;;0.70;;
11283;SDS011;5698;47.332;11.180;2024-03-29T03:38:40;0.50;;;0.50;;
11283;SDS011;5698;47.332;11.180;2024-03-29T03:41:06;0.60;;;0.60;;
11283;SDS011;5698;47.332;11.180;2024-03-29T03:43:34;0.53;;;0.53;;
11283;SDS011;5698;47.332;11.180;2024-03-29T03:46:00;0.50;;;0.50;;
11283;SDS011;5698;47.332;11.180;2024-03-29T03:48:27;0.60;;;0.60;;
11283;SDS011;5698;47.332;11.180;2024-03-29T03:50:55;0.40;;;0.40;;
11283;SDS011;5698;47.332;11.180;2024-03-29T03:53:22;0.60;;;0.60;;
11283;SDS011;5698;47.332;11.180;2024-03-29T03:55:49;0.87;;;0.50;;
11283;SDS011;5698;47.332;11.180;2024-03-29T03:58:16;0.50;;;0.50;;
11283;SDS011;5698;47.332;11.180;2024-03-29T04:00:42;0.57;;;0.57;;
11283;SDS011;5698;47.332;11.180;2024-03-29T04:03:09;0.50;;;0.50;;
11283;SDS011;5698;47.332;11.180;2024-03-29T04:05:36;0.60;;;0.60;;
11283;SDS011;5698;47.332;11.180;2024-03-29T04:08:05;0.60;;;0.60;;
11283;SDS011;5698;47.332;11.180;2024-03-29T04:10:31;0.50;;;0.50;;
11283;SDS011;5698;47.332;11.180;2024-03-29T04:12:58;0.70;;;0.70;;
11283;SDS011;5698;47.332;11.180;2024-03-29T04:15:24;0.80;;;0.80;;
11283;SDS011;5698;47.332;11.180;2024-03-29T04:17:51;0.67;;;0.67;;
11283;SDS011;5698;47.332;11.180;2024-03-29T04:20:17;0.70;;;0.70;;
11283;SDS011;5698;47.332;11.180;2024-03-29T04:22:44;1.47;;;0.80;;
11283;SDS011;5698;47.332;11.180;2024-03-29T04:25:11;0.73;;;0.70;;
11283;SDS011;5698;47.332;11.180;2024-03-29T04:27:39;1.23;;;0.60;;
11283;SDS011;5698;47.332;11.180;2024-03-29T04:30:06;0.93;;;0.67;;
11283;SDS011;5698;47.332;11.180;2024-03-29T04:32:34;1.17;;;0.70;;
11283;SDS011;5698;47.332;11.180;2024-03-29T04:35:00;0.60;;;0.60;;
11283;SDS011;5698;47.332;11.180;2024-03-29T04:37:27;0.70;;;0.63;;
11283;SDS011;5698;47.332;11.180;2024-03-29T04:39:54;1.07;;;0.67;;
11283;SDS011;5698;47.332;11.180;2024-03-29T04:42:22;1.23;;;0.70;;
11283;SDS011;5698;47.332;11.180;2024-03-29T04:44:49;0.40;;;0.40;;
11283;SDS011;5698;47.332;11.180;2024-03-29T04:47:16;0.57;;;0.57;;
11283;SDS011;5698;47.332;11.180;2024-03-29T04:49:43;0.53;;;0.53;;
11283;SDS011;5698;47.332;11.180;2024-03-29T04:52:10;0.60;;;0.60;;
11283;SDS011;5698;47.332;11.180;2024-03-29T04:54:38;0.60;;;0.60;;
11283;SDS011;5698;47.332;11.180;2024-03-29T04:57:05;0.60;;;0.60;;
11283;SDS011;5698;47.332;11.180;2024-03-29T04:59:33;0.63;;;0.63;;
11283;SDS011;5698;47.332;11.180;2024-03-29T05:02:00;1.13;;;0.70;;
11283;SDS011;5698;47.332;11.180;2024-03-29T05:04:28;0.67;;;0.67;;
11283;SDS011;5698;47.332;11.180;2024-03-29T05:06:55;0.80;;;0.67;;
11283;SDS011;5698;47.332;11.180;2024-03-29T05:09:23;0.90;;;0.70;;
11283;SDS011;5698;47.332;11.180;2024-03-29T05:11:50;2.20;;;2.10;;
11283;SDS011;5698;47.332;11.180;2024-03-29T05:14:19;3.30;;;1.70;;
11283;SDS011;5698;47.332;11.180;2024-03-29T05:16:48;1.90;;;1.00;;
11283;SDS011;5698;47.332;11.180;2024-03-29T05:19:16;1.10;;;1.00;;
11283;SDS011;5698;47.332;11.180;2024-03-29T05:21:43;0.70;;;0.70;;
11283;SDS011;5698;47.332;11.180;2024-03-29T05:24:09;0.70;;;0.70;;
11283;SDS011;5698;47.332;11.180;2024-03-29T05:26:36;0.83;;;0.80;;
11283;SDS011;5698;47.332;11.180;2024-03-29T05:29:03;0.60;;;0.60;;
11283;SDS011;5698;47.332;11.180;2024-03-29T05:31:30;1.03;;;0.70;;
11283;SDS011;5698;47.332;11.180;2024-03-29T05:33:58;0.67;;;0.67;;
11283;SDS011;5698;47.332;11.180;2024-03-29T05:36:26;0.70;;;0.70;;
11283;SDS011;5698;47.332;11.180;2024-03-29T05:38:53;0.60;;;0.50;;
11283;SDS011;5698;47.332;11.180;2024-03-29T05:41:21;0.83;;;0.60;;
11283;SDS011;5698;47.332;11.180;2024-03-29T05:43:48;0.67;;;0.60;;
11283;SDS011;5698;47.332;11.180;2024-03-29T05:46:15;0.70;;;0.70;;
11283;SDS011;5698;47.332;11.180;2024-03-29T05:48:43;0.90;;;0.80;;
11283;SDS011;5698;47.332;11.180;2024-03-29T05:51:11;0.70;;;0.70;;
11283;SDS011;5698;47.332;11.180;2024-03-29T05:53:38;0.60;;;0.60;;
11283;SDS011;5698;47.332;11.180;2024-03-29T05:56:05;1.03;;;0.67;;
11283;SDS011;5698;47.332;11.180;2024-03-29T05:58:33;0.70;;;0.70;;
11283;SDS011;5698;47.332;11.180;2024-03-29T06:01:00;1.90;;;0.77;;
11283;SDS011;5698;47.332;11.180;2024-03-29T06:03:27;0.70;;;0.70;;
11283;SDS011;5698;47.332;11.180;2024-03-29T06:05:54;1.73;;;0.80;;
11283;SDS011;5698;47.332;11.180;2024-03-29T06:08:22;1.00;;;1.00;;
11283;SDS011;5698;47.332;11.180;2024-03-29T06:10:52;2.70;;;2.50;;
11283;SDS011;5698;47.332;11.180;2024-03-29T06:13:19;1.50;;;1.40;;
11283;SDS011;5698;47.332;11.180;2024-03-29T06:16:14;0.73;;;0.73;;
11283;SDS011;5698;47.332;11.180;2024-03-29T06:18:58;1.20;;;1.10;;
11283;SDS011;5698;47.332;11.180;2024-03-29T06:21:25;1.00;;;1.00;;
11283;SDS011;5698;47.332;11.180;2024-03-29T06:23:53;1.30;;;1.00;;
11283;SDS011;5698;47.332;11.180;2024-03-29T06:26:20;0.90;;;0.90;;
11283;SDS011;5698;47.332;11.180;2024-03-29T06:28:47;2.80;;;0.90;;
11283;SDS011;5698;47.332;11.180;2024-03-29T06:31:14;1.03;;;0.90;;
11283;SDS011;5698;47.332;11.180;2024-03-29T06:33:41;0.80;;;0.80;;
11283;SDS011;5698;47.332;11.180;2024-03-29T06:36:08;1.53;;;0.90;;
11283;SDS011;5698;47.332;11.180;2024-03-29T06:38:35;0.80;;;0.80;;
11283;SDS011;5698;47.332;11.180;2024-03-29T06:41:03;2.03;;;0.83;;
11283;SDS011;5698;47.332;11.180;2024-03-29T06:43:30;1.77;;;0.80;;
11283;SDS011;5698;47.332;11.180;2024-03-29T06:45:57;1.00;;;0.80;;
11283;SDS011;5698;47.332;11.180;2024-03-29T06:48:24;0.90;;;0.80;;
11283;SDS011;5698;47.332;11.180;2024-03-29T06:50:51;1.97;;;0.80;;
11283;SDS011;5698;47.332;11.180;2024-03-29T06:53:18;1.10;;;1.00;;
11283;SDS011;5698;47.332;11.180;2024-03-29T06:55:46;2.13;;;0.87;;
11283;SDS011;5698;47.332;11.180;2024-03-29T06:58:16;2.03;;;1.00;;
11283;SDS011;5698;47.332;11.180;2024-03-29T07:00:43;2.40;;;1.57;;
11283;SDS011;5698;47.332;11.180;2024-03-29T07:03:11;1.00;;;1.00;;
11283;SDS011;5698;47.332;11.180;2024-03-29T07:05:38;1.10;;;0.90;;
11283;SDS011;5698;47.332;11.180;2024-03-29T07:08:05;0.50;;;0.50;;
11283;SDS011;5698;47.332;11.180;2024-03-29T07:10:33;1.37;;;1.27;;
11283;SDS011;5698;47.332;11.180;2024-03-29T07:13:00;1.67;;;1.43;;
11283;SDS011;5698;47.332;11.180;2024-03-29T07:15:28;3.27;;;2.80;;
11283;SDS011;5698;47.332;11.180;2024-03-29T07:17:55;4.23;;;3.40;;
11283;SDS011;5698;47.332;11.180;2024-03-29T07:20:23;4.13;;;3.73;;
11283;SDS011;5698;47.332;11.180;2024-03-29T07:22:52;2.93;;;2.03;;
11283;SDS011;5698;47.332;11.180;2024-03-29T07:25:19;2.20;;;2.00;;
11283;SDS011;5698;47.332;11.180;2024-03-29T07:27:46;1.77;;;1.50;;
11283;SDS011;5698;47.332;11.180;2024-03-29T07:30:13;1.63;;;1.40;;
11283;SDS011;5698;47.332;11.180;2024-03-29T07:32:43;2.43;;;1.30;;
11283;SDS011;5698;47.332;11.180;2024-03-29T07:35:10;2.10;;;1.27;;
11283;SDS011;5698;47.332;11.180;2024-03-29T07:37:37;2.03;;;1.70;;
11283;SDS011;5698;47.332;11.180;2024-03-29T07:40:06;1.53;;;1.20;;
11283;SDS011;5698;47.332;11.180;2024-03-29T07:42:33;3.43;;;3.13;;
11283;SDS011;5698;47.332;11.180;2024-03-29T07:45:00;1.07;;;0.97;;
11283;SDS011;5698;47.332;11.180;2024-03-29T07:47:26;1.50;;;1.40;;
11283;SDS011;5698;47.332;11.180;2024-03-29T07:49:55;1.90;;;0.90;;
11283;SDS011;5698;47.332;11.180;2024-03-29T07:52:22;1.00;;;0.90;;
11283;SDS011;5698;47.332;11.180;2024-03-29T07:54:50;0.93;;;0.90;;
11283;SDS011;5698;47.332;11.180;2024-03-29T07:57:17;1.13;;;0.87;;
11283;SDS011;5698;47.332;11.180;2024-03-29T07:59:44;1.00;;;0.90;;
11283;SDS011;5698;47.332;11.180;2024-03-29T08:02:11;1.93;;;0.90;;
11283;SDS011;5698;47.332;11.180;2024-03-29T08:04:38;2.70;;;0.90;;
11283;SDS011;5698;47.332;11.180;2024-03-29T08:07:09;1.93;;;0.90;;
11283;SDS011;5698;47.332;11.180;2024-03-29T08:09:37;1.50;;;1.10;;
11283;SDS011;5698;47.332;11.180;2024-03-29T08:12:04;2.30;;;1.03;;
11283;SDS011;5698;47.332;11.180;2024-03-29T08:14:32;1.90;;;1.07;;
11283;SDS011;5698;47.332;11.180;2024-03-29T08:16:58;1.97;;;0.80;;
11283;SDS011;5698;47.332;11.180;2024-03-29T08:19:29;1.10;;;1.00;;
11283;SDS011;5698;47.332;11.180;2024-03-29T08:21:56;0.80;;;0.80;;
11283;SDS011;5698;47.332;11.180;2024-03-29T08:24:27;1.00;;;0.90;;
11283;SDS011;5698;47.332;11.180;2024-03-29T08:26:54;1.47;;;0.87;;
11283;SDS011;5698;47.332;11.180;2024-03-29T08:29:21;1.73;;;1.00;;
11283;SDS011;5698;47.332;11.180;2024-03-29T08:31:48;1.10;;;0.80;;
11283;SDS011;5698;47.332;11.180;2024-03-29T08:34:15;0.73;;;0.73;;
11283;SDS011;5698;47.332;11.180;2024-03-29T08:36:42;2.40;;;1.00;;
11283;SDS011;5698;47.332;11.180;2024-03-29T08:39:09;1.70;;;1.10;;
11283;SDS011;5698;47.332;11.180;2024-03-29T08:41:38;1.83;;;1.00;;
11283;SDS011;5698;47.332;11.180;2024-03-29T08:44:05;1.07;;;0.97;;
11283;SDS011;5698;47.332;11.180;2024-03-29T08:46:33;1.20;;;1.10;;
11283;SDS011;5698;47.332;11.180;2024-03-29T08:49:00;1.00;;;0.90;;
11283;SDS011;5698;47.332;11.180;2024-03-29T08:51:27;1.20;;;1.10;;
11283;SDS011;5698;47.332;11.180;2024-03-29T08:53:54;0.97;;;0.70;;
11283;SDS011;5698;47.332;11.180;2024-03-29T08:56:22;0.60;;;0.60;;
11283;SDS011;5698;47.332;11.180;2024-03-29T08:58:51;1.57;;;1.10;;
11283;SDS011;5698;47.332;11.180;2024-03-29T09:01:18;1.00;;;0.90;;
11283;SDS011;5698;47.332;11.180;2024-03-29T09:03:45;1.20;;;0.90;;
11283;SDS011;5698;47.332;11.180;2024-03-29T09:06:12;1.50;;;0.80;;
11283;SDS011;5698;47.332;11.180;2024-03-29T09:08:41;1.57;;;1.00;;
11283;SDS011;5698;47.332;11.180;2024-03-29T09:11:08;1.00;;;0.90;;
11283;SDS011;5698;47.332;11.180;2024-03-29T09:13:36;0.80;;;0.70;;
11283;SDS011;5698;47.332;11.180;2024-03-29T09:16:05;1.43;;;0.77;;
11283;SDS011;5698;47.332;11.180;2024-03-29T09:18:32;0.60;;;0.60;;
11283;SDS011;5698;47.332;11.180;2024-03-29T09:20:59;1.20;;;1.00;;
11283;SDS011;5698;47.332;11.180;2024-03-29T09:23:26;0.90;;;0.80;;
11283;SDS011;5698;47.332;11.180;2024-03-29T09:25:54;0.60;;;0.60;;
11283;SDS011;5698;47.332;11.180;2024-03-29T09:28:21;1.70;;;0.80;;
11283;SDS011;5698;47.332;11.180;2024-03-29T09:30:49;1.73;;;0.70;;
11283;SDS011;5698;47.332;11.180;2024-03-29T09:33:17;0.83;;;0.63;;
11283;SDS011;5698;47.332;11.180;2024-03-29T09:35:44;0.80;;;0.60;;
11283;SDS011;5698;47.332;11.180;2024-03-29T09:38:11;1.50;;;0.70;;
11283;SDS011;5698;47.332;11.180;2024-03-29T09:40:38;1.10;;;0.60;;
11283;SDS011;5698;47.332;11.180;2024-03-29T09:43:05;1.07;;;0.60;;
11283;SDS011;5698;47.332;11.180;2024-03-29T09:45:37;1.57;;;0.87;;
11283;SDS011;5698;47.332;11.180;2024-03-29T09:48:04;0.63;;;0.60;;
11283;SDS011;5698;47.332;11.180;2024-03-29T09:50:35;0.60;;;0.50;;
11283;SDS011;5698;47.332;11.180;2024-03-29T09:53:03;1.20;;;0.60;;
11283;SDS011;5698;47.332;11.180;2024-03-29T09:55:33;1.63;;;0.80;;
11283;SDS011;5698;47.332;11.180;2024-03-29T09:58:01;1.07;;;0.60;;
11283;SDS011;5698;47.332;11.180;2024-03-29T10:00:29;1.40;;;0.70;;
11283;SDS011;5698;47.332;11.180;2024-03-29T10:02:56;0.73;;;0.70;;
11283;SDS011;5698;47.332;11.180;2024-03-29T10:05:23;3.50;;;0.80;;
11283;SDS011;5698;47.332;11.180;2024-03-29T10:07:53;0.77;;;0.50;;
11283;SDS011;5698;47.332;11.180;2024-03-29T10:10:21;0.73;;;0.50;;
11283;SDS011;5698;47.332;11.180;2024-03-29T10:12:48;0.50;;;0.50;;
11283;SDS011;5698;47.332;11.180;2024-03-29T10:15:15;0.80;;;0.60;;
11283;SDS011;5698;47.332;11.180;2024-03-29T10:17:44;2.67;;;0.60;;
11283;SDS011;5698;47.332;11.180;2024-03-29T10:20:15;0.53;;;0.53;;
11283;SDS011;5698;47.332;11.180;2024-03-29T10:22:43;0.77;;;0.50;;
11283;SDS011;5698;47.332;11.180;2024-03-29T10:25:12;0.90;;;0.50;;
11283;SDS011;5698;47.332;11.180;2024-03-29T10:27:40;0.50;;;0.50;;
11283;SDS011;5698;47.332;11.180;2024-03-29T10:30:08;0.40;;;0.40;;
11283;SDS011;5698;47.332;11.180;2024-03-29T10:32:37;0.93;;;0.50;;
11283;SDS011;5698;47.332;11.180;2024-03-29T10:35:05;1.97;;;0.63;;
11283;SDS011;5698;47.332;11.180;2024-03-29T10:37:33;0.57;;;0.43;;
11283;SDS011;5698;47.332;11.180;2024-03-29T10:40:05;1.70;;;0.53;;
11283;SDS011;5698;47.332;11.180;2024-03-29T10:42:34;1.57;;;0.60;;
11283;SDS011;5698;47.332;11.180;2024-03-29T10:45:03;0.43;;;0.43;;
11283;SDS011;5698;47.332;11.180;2024-03-29T10:47:32;0.63;;;0.40;;
11283;SDS011;5698;47.332;11.180;2024-03-29T10:50:00;0.70;;;0.40;;
11283;SDS011;5698;47.332;11.180;2024-03-29T10:52:28;0.73;;;0.57;;
11283;SDS011;5698;47.332;11.180;2024-03-29T10:54:55;0.40;;;0.40;;
11283;SDS011;5698;47.332;11.180;2024-03-29T10:57:22;0.73;;;0.50;;
11283;SDS011;5698;47.332;11.180;2024-03-29T10:59:54;0.47;;;0.43;;
11283;SDS011;5698;47.332;11.180;2024-03-29T11:02:31;0.70;;;0.63;;
11283;SDS011;5698;47.332;11.180;2024-03-29T11:05:06;6.23;;;3.13;;
11283;SDS011;5698;47.332;11.180;2024-03-29T11:07:37;3.40;;;1.77;;
11283;SDS011;5698;47.332;11.180;2024-03-29T11:22:38;0.20;;;0.20;;
11283;SDS011;5698;47.332;11.180;2024-03-29T11:25:05;0.20;;;0.20;;
11283;SDS011;5698;47.332;11.180;2024-03-29T11:27:33;0.50;;;0.50;;
11283;SDS011;5698;47.332;11.180;2024-03-29T11:30:01;0.20;;;0.20;;
11283;SDS011;5698;47.332;11.180;2024-03-29T11:32:35;0.30;;;0.30;;
11283;SDS011;5698;47.332;11.180;2024-03-29T11:35:03;0.30;;;0.30;;
11283;SDS011;5698;47.332;11.180;2024-03-29T11:37:31;0.40;;;0.37;;
11283;SDS011;5698;47.332;11.180;2024-03-29T11:40:00;1.10;;;0.87;;
11283;SDS011;5698;47.332;11.180;2024-03-29T11:42:36;0.50;;;0.50;;
11283;SDS011;5698;47.332;11.180;2024-03-29T11:45:04;2.27;;;0.70;;
11283;SDS011;5698;47.332;11.180;2024-03-29T11:47:35;0.30;;;0.30;;
11283;SDS011;5698;47.332;11.180;2024-03-29T11:50:04;0.30;;;0.30;;
11283;SDS011;5698;47.332;11.180;2024-03-29T11:52:33;0.70;;;0.43;;
11283;SDS011;5698;47.332;11.180;2024-03-29T11:55:01;1.33;;;0.50;;
11283;SDS011;5698;47.332;11.180;2024-03-29T11:57:29;0.30;;;0.30;;
11283;SDS011;5698;47.332;11.180;2024-03-29T11:59:56;0.30;;;0.30;;
11283;SDS011;5698;47.332;11.180;2024-03-29T12:02:23;0.30;;;0.30;;
11283;SDS011;5698;47.332;11.180;2024-03-29T12:04:50;0.20;;;0.20;;
11283;SDS011;5698;47.332;11.180;2024-03-29T12:07:17;1.60;;;0.30;;
11283;SDS011;5698;47.332;11.180;2024-03-29T12:09:44;0.30;;;0.30;;
11283;SDS011;5698;47.332;11.180;2024-03-29T12:12:12;0.23;;;0.23;;
11283;SDS011;5698;47.332;11.180;2024-03-29T12:14:42;0.40;;;0.40;;
11283;SDS011;5698;47.332;11.180;2024-03-29T12:17:09;0.20;;;0.20;;
11283;SDS011;5698;47.332;11.180;2024-03-29T12:19:37;0.23;;;0.23;;
11283;SDS011;5698;47.332;11.180;2024-03-29T12:22:07;0.20;;;0.20;;
11283;SDS011;5698;47.332;11.180;2024-03-29T12:24:34;0.30;;;0.30;;
11283;SDS011;5698;47.332;11.180;2024-03-29T12:27:01;0.30;;;0.30;;
11283;SDS011;5698;47.332;11.180;2024-03-29T12:29:30;0.30;;;0.30;;
11283;SDS011;5698;47.332;11.180;2024-03-29T12:31:58;0.30;;;0.30;;
11283;SDS011;5698;47.332;11.180;2024-03-29T12:34:26;0.20;;;0.20;;
11283;SDS011;5698;47.332;11.180;2024-03-29T12:36:53;0.20;;;0.20;;
11283;SDS011;5698;47.332;11.180;2024-03-29T12:39:20;1.13;;;0.27;;
11283;SDS011;5698;47.332;11.180;2024-03-29T12:41:50;0.10;;;0.10;;
11283;SDS011;5698;47.332;11.180;2024-03-29T12:44:21;1.17;;;0.20;;
11283;SDS011;5698;47.332;11.180;2024-03-29T12:46:50;0.20;;;0.20;;
11283;SDS011;5698;47.332;11.180;2024-03-29T12:49:17;0.20;;;0.20;;
11283;SDS011;5698;47.332;11.180;2024-03-29T12:51:44;0.20;;;0.20;;
11283;SDS011;5698;47.332;11.180;2024-03-29T12:54:11;0.20;;;0.20;;
11283;SDS011;5698;47.332;11.180;2024-03-29T12:56:39;0.73;;;0.30;;
11283;SDS011;5698;47.332;11.180;2024-03-29T12:59:07;0.93;;;0.20;;
11283;SDS011;5698;47.332;11.180;2024-03-29T13:01:34;0.20;;;0.20;;
11283;SDS011;5698;47.332;11.180;2024-03-29T13:04:02;0.20;;;0.20;;
11283;SDS011;5698;47.332;11.180;2024-03-29T13:06:29;0.20;;;0.20;;
11283;SDS011;5698;47.332;11.180;2024-03-29T13:08:56;0.20;;;0.20;;
11283;SDS011;5698;47.332;11.180;2024-03-29T13:11:23;0.30;;;0.30;;
11283;SDS011;5698;47.332;11.180;2024-03-29T13:13:50;0.30;;;0.30;;
11283;SDS011;5698;47.332;11.180;2024-03-29T13:16:18;0.20;;;0.20;;
11283;SDS011;5698;47.332;11.180;2024-03-29T13:18:46;0.20;;;0.20;;
11283;SDS011;5698;47.332;11.180;2024-03-29T13:21:15;0.20;;;0.20;;
11283;SDS011;5698;47.332;11.180;2024-03-29T13:23:42;0.30;;;0.30;;
11283;SDS011;5698;47.332;11.180;2024-03-29T15:46:14;22.77;;;4.27;;
11283;SDS011;5698;47.332;11.180;2024-03-29T15:48:41;17.43;;;4.33;;
11283;SDS011;5698;47.332;11.180;2024-03-29T15:51:08;26.50;;;5.30;;
11283;SDS011;5698;47.332;11.180;2024-03-29T21:39:27;66.67;;;10.60;;
11283;SDS011;5698;47.332;11.180;2024-03-29T21:41:54;72.27;;;11.70;;
11283;SDS011;5698;47.332;11.180;2024-03-29T21:44:21;73.47;;;11.40;;
11283;SDS011;5698;47.332;11.180;2024-03-29T21:46:50;73.93;;;10.83;;
11283;SDS011;5698;47.332;11.180;2024-03-29T21:49:16;72.60;;;12.33;;
11283;SDS011;5698;47.332;11.180;2024-03-29T21:51:46;75.93;;;12.77;;
11283;SDS011;5698;47.332;11.180;2024-03-29T21:54:12;66.43;;;11.77;;
11283;SDS011;5698;47.332;11.180;2024-03-29T21:56:41;85.37;;;11.30;;
11283;SDS011;5698;47.332;11.180;2024-03-29T21:59:08;69.40;;;12.10;;
11283;SDS011;5698;47.332;11.180;2024-03-29T22:01:35;66.93;;;11.57;;
11283;SDS011;5698;47.332;11.180;2024-03-29T22:04:02;76.53;;;11.43;;
11283;SDS011;5698;47.332;11.180;2024-03-29T22:06:29;59.70;;;10.43;;
11283;SDS011;5698;47.332;11.180;2024-03-29T22:08:55;60.60;;;10.60;;
11283;SDS011;5698;47.332;11.180;2024-03-29T22:11:23;60.37;;;11.57;;
11283;SDS011;5698;47.332;11.180;2024-03-29T22:13:51;70.03;;;11.33;;
11283;SDS011;5698;47.332;11.180;2024-03-29T22:16:20;67.13;;;10.57;;
11283;SDS011;5698;47.332;11.180;2024-03-29T22:18:46;75.80;;;10.20;;
11283;SDS011;5698;47.332;11.180;2024-03-29T22:21:14;73.43;;;12.57;;
11283;SDS011;5698;47.332;11.180;2024-03-29T22:23:40;72.20;;;11.80;;
11283;SDS011;5698;47.332;11.180;2024-03-29T22:26:08;56.77;;;9.90;;
11283;SDS011;5698;47.332;11.180;2024-03-29T22:28:34;73.57;;;9.53;;
11283;SDS011;5698;47.332;11.180;2024-03-29T22:31:03;63.37;;;9.77;;
11283;SDS011;5698;47.332;11.180;2024-03-29T22:33:32;50.93;;;9.23;;
11283;SDS011;5698;47.332;11.180;2024-03-29T22:35:59;57.17;;;9.53;;
11283;SDS011;5698;47.332;11.180;2024-03-29T22:38:26;74.07;;;10.37;;
11283;SDS011;5698;47.332;11.180;2024-03-29T22:40:54;67.43;;;11.00;;
11283;SDS011;5698;47.332;11.180;2024-03-29T22:43:21;63.83;;;8.50;;
11283;SDS011;5698;47.332;11.180;2024-03-29T22:45:49;60.60;;;9.60;;
11283;SDS011;5698;47.332;11.180;2024-03-29T22:48:17;54.97;;;9.17;;
11283;SDS011;5698;47.332;11.180;2024-03-29T22:50:45;66.43;;;10.17;;
11283;SDS011;5698;47.332;11.180;2024-03-29T22:53:12;57.73;;;7.53;;
11283;SDS011;5698;47.332;11.180;2024-03-29T22:55:40;59.37;;;9.40;;
11283;SDS011;5698;47.332;11.180;2024-03-29T22:58:07;53.67;;;10.13;;
11283;SDS011;5698;47.332;11.180;2024-03-29T23:00:35;57.03;;;8.90;;
11283;SDS011;5698;47.332;11.180;2024-03-29T23:03:01;50.23;;;9.57;;
11283;SDS011;5698;47.332;11.180;2024-03-29T23:05:31;66.07;;;9.17;;